Terminal Aerodrome Forecast
Issued by NWS

Home | Current Version | Previous Version | Text Only | Print | Product List | Glossary On
Versions: 1 2 3 4 5 6 7 8 9 10 11 12 13 14 15 16 17 18 19 20
000
FTUS43 KICT 061720
TAFSLN
TAF
KSLN 061720Z 0618/0718 17026G35KT P6SM OVC015
     FM061900 17026G35KT P6SM SCT015 BKN025
     FM062300 18024G32KT P6SM VCTS SCT040CB BKN100
     FM070800 18022G30KT P6SM BKN010=

USA.gov is the U.S. government's official web portal to all federal, state and local government web resources and services.